createdAt,value
2019-03-08T00:00:46.771Z,1.87
2019-03-08T00:03:15.497Z,1.90
2019-03-08T00:05:44.186Z,1.90
2019-03-08T00:08:12.758Z,1.60
2019-03-08T00:10:41.458Z,1.60
2019-03-08T00:13:10.240Z,1.70
2019-03-08T00:15:39.123Z,1.47
2019-03-08T00:18:07.866Z,1.73
2019-03-08T00:20:36.534Z,1.30
2019-03-08T00:23:05.890Z,1.13
2019-03-08T00:25:34.609Z,1.80
2019-03-08T00:28:03.263Z,1.30
2019-03-08T00:30:31.998Z,1.60
2019-03-08T00:33:00.667Z,1.60
2019-03-08T00:35:29.404Z,1.23
2019-03-08T00:37:58.171Z,1.80
2019-03-08T00:40:26.850Z,1.40
2019-03-08T00:42:55.537Z,1.50
2019-03-08T00:45:24.106Z,1.30
2019-03-08T00:47:52.806Z,1.50
2019-03-08T00:50:21.507Z,1.30
2019-03-08T00:52:50.234Z,1.30
2019-03-08T00:55:18.895Z,1.60
2019-03-08T00:57:47.667Z,1.40
2019-03-08T01:00:16.616Z,1.40
2019-03-08T01:02:45.275Z,1.40
2019-03-08T01:05:14.143Z,1.40
2019-03-08T01:07:42.905Z,1.17
2019-03-08T01:10:12.567Z,1.20
2019-03-08T01:12:41.275Z,1.20
2019-03-08T01:15:10.510Z,1.30
2019-03-08T01:17:39.247Z,1.40
2019-03-08T01:20:08.245Z,1.33
2019-03-08T01:22:36.996Z,1.30
2019-03-08T01:25:06.126Z,1.33
2019-03-08T01:27:35.083Z,1.60
2019-03-08T01:30:04.219Z,1.33
2019-03-08T01:32:32.980Z,1.50
2019-03-08T01:35:01.545Z,1.10
2019-03-08T01:37:30.205Z,1.20
2019-03-08T01:39:58.934Z,1.47
2019-03-08T01:42:27.956Z,1.43
2019-03-08T01:44:56.606Z,1.00
2019-03-08T01:47:25.349Z,1.27
2019-03-08T01:49:53.957Z,1.30
2019-03-08T01:52:22.681Z,1.30
2019-03-08T01:54:51.371Z,1.40
2019-03-08T01:57:20.211Z,1.63
2019-03-08T01:59:48.988Z,1.23
2019-03-08T02:02:17.670Z,1.43
2019-03-08T02:04:46.281Z,1.20
2019-03-08T02:07:14.846Z,1.47
2019-03-08T02:09:43.521Z,1.30
2019-03-08T02:12:12.172Z,1.40
2019-03-08T02:14:40.859Z,1.70
2019-03-08T02:17:09.644Z,1.50
2019-03-08T02:19:38.394Z,1.50
2019-03-08T02:22:07.095Z,1.30
2019-03-08T02:24:35.781Z,1.50
2019-03-08T02:27:04.459Z,1.37
2019-03-08T02:29:33.058Z,1.47
2019-03-08T02:32:01.734Z,1.40
2019-03-08T02:34:30.461Z,1.87
2019-03-08T02:36:59.148Z,1.60
2019-03-08T02:39:27.849Z,1.40
2019-03-08T02:41:56.617Z,1.33
2019-03-08T02:44:25.460Z,1.30
2019-03-08T02:46:54.184Z,1.47
2019-03-08T02:49:22.939Z,1.57
2019-03-08T02:51:51.627Z,1.50
2019-03-08T02:54:20.379Z,1.60
2019-03-08T02:56:49.084Z,1.50
2019-03-08T02:59:17.769Z,1.50
2019-03-08T03:01:46.467Z,1.37
2019-03-08T03:04:15.119Z,1.40
2019-03-08T03:06:43.807Z,1.63
2019-03-08T03:09:12.637Z,1.47
2019-03-08T03:11:41.361Z,1.60
2019-03-08T03:14:10.103Z,1.50
2019-03-08T03:16:38.816Z,1.63
2019-03-08T03:19:07.503Z,1.50
2019-03-08T03:21:36.147Z,1.43
2019-03-08T03:24:04.933Z,1.50
2019-03-08T03:26:33.619Z,1.30
2019-03-08T03:29:02.270Z,1.60
2019-03-08T03:31:30.806Z,1.33
2019-03-08T03:33:59.601Z,1.20
2019-03-08T03:36:28.414Z,1.50
2019-03-08T03:38:57.363Z,1.40
2019-03-08T03:41:26.161Z,1.37
2019-03-08T03:43:54.889Z,1.40
2019-03-08T03:46:23.545Z,1.30
2019-03-08T03:48:52.210Z,1.50
2019-03-08T03:51:20.889Z,1.30
2019-03-08T03:53:49.622Z,1.27
2019-03-08T03:56:18.407Z,1.40
2019-03-08T03:58:47.184Z,1.20
2019-03-08T04:01:38.109Z,1.30
2019-03-08T04:04:06.833Z,1.30
2019-03-08T04:06:36.882Z,1.50
2019-03-08T04:09:10.499Z,1.20
2019-03-08T04:11:39.112Z,1.50
2019-03-08T04:14:07.839Z,1.50
2019-03-08T04:16:36.805Z,1.93
2019-03-08T04:19:05.497Z,1.50
2019-03-08T04:21:34.189Z,1.70
2019-03-08T04:24:02.963Z,1.50
2019-03-08T04:26:31.706Z,1.63
2019-03-08T04:29:00.481Z,1.50
2019-03-08T04:31:29.433Z,1.30
2019-03-08T04:33:58.072Z,1.57
2019-03-08T04:36:26.783Z,1.60
2019-03-08T04:38:55.480Z,1.80
2019-03-08T04:41:24.187Z,1.43
2019-03-08T04:43:52.867Z,1.50
2019-03-08T04:46:21.849Z,1.50
2019-03-08T04:48:50.571Z,1.70
2019-03-08T04:51:19.344Z,1.40
2019-03-08T04:53:48.055Z,1.70
2019-03-08T04:56:16.733Z,1.40
2019-03-08T04:58:45.415Z,1.70
2019-03-08T05:01:14.252Z,1.37
2019-03-08T05:03:43.062Z,1.80
2019-03-08T05:06:11.740Z,1.53
2019-03-08T05:08:40.433Z,1.60
2019-03-08T05:11:09.149Z,1.80
2019-03-08T05:13:37.835Z,1.90
2019-03-08T05:16:06.787Z,1.60
2019-03-08T05:18:35.438Z,1.90
2019-03-08T05:21:04.129Z,1.70
2019-03-08T05:23:32.865Z,1.60
2019-03-08T05:26:01.551Z,1.57
2019-03-08T05:28:30.303Z,1.60
2019-03-08T05:30:59.222Z,1.73
2019-03-08T05:33:27.994Z,1.77
2019-03-08T05:35:56.714Z,1.70
2019-03-08T05:38:25.451Z,1.70
2019-03-08T05:40:54.104Z,1.57
2019-03-08T05:43:22.878Z,1.50
2019-03-08T05:45:51.717Z,1.80
2019-03-08T05:48:20.508Z,1.60
2019-03-08T05:50:49.216Z,1.50
2019-03-08T05:53:17.909Z,2.70
2019-03-08T05:55:46.670Z,2.67
2019-03-08T05:58:15.410Z,1.80
2019-03-08T06:00:44.389Z,2.33
2019-03-08T06:03:13.129Z,1.67
2019-03-08T06:05:41.788Z,1.73
2019-03-08T06:08:10.457Z,1.70
2019-03-08T06:10:39.170Z,1.50
2019-03-08T06:13:07.917Z,1.70
2019-03-08T06:15:36.740Z,1.30
2019-03-08T06:18:05.414Z,1.50
2019-03-08T06:20:34.184Z,1.57
2019-03-08T06:23:04.515Z,1.20
2019-03-08T06:25:34.155Z,1.67
2019-03-08T06:28:02.910Z,1.47
2019-03-08T06:30:31.711Z,1.53
2019-03-08T06:33:00.405Z,1.53
2019-03-08T06:35:29.557Z,1.47
2019-03-08T06:37:58.398Z,1.70
2019-03-08T06:40:27.159Z,1.47
2019-03-08T06:42:55.901Z,1.30
2019-03-08T06:45:24.631Z,1.00
2019-03-08T06:47:53.407Z,1.37
2019-03-08T06:50:22.076Z,1.73
2019-03-08T06:52:50.877Z,1.13
2019-03-08T06:55:19.627Z,1.10
2019-03-08T06:57:51.157Z,1.27
2019-03-08T07:00:29.983Z,1.43
2019-03-08T07:02:58.705Z,2.00
2019-03-08T07:05:27.433Z,1.40
2019-03-08T07:07:56.168Z,1.20
2019-03-08T07:10:25.052Z,1.30
2019-03-08T07:13:02.488Z,1.30
2019-03-08T07:15:24.286Z,1.17
2019-03-08T07:17:53.063Z,1.47
2019-03-08T07:20:29.943Z,0.93
2019-03-08T07:23:07.294Z,1.40
2019-03-08T07:25:54.528Z,0.87
2019-03-08T07:28:57.585Z,1.10
2019-03-08T07:31:32.173Z,1.00
2019-03-08T07:34:31.913Z,1.20
2019-03-08T07:37:25.850Z,1.23
2019-03-08T07:40:10.589Z,1.33
2019-03-08T07:43:13.295Z,1.10
2019-03-08T07:45:59.639Z,1.13
2019-03-08T07:48:52.221Z,1.43
2019-03-08T07:51:31.520Z,1.10
2019-03-08T07:54:11.884Z,1.10
2019-03-08T07:56:58.375Z,1.43
2019-03-08T07:59:33.727Z,1.03
2019-03-08T08:02:15.659Z,1.43
2019-03-08T08:05:06.162Z,1.13
2019-03-08T08:07:42.627Z,1.27
2019-03-08T08:10:29.136Z,1.13
2019-03-08T08:13:09.616Z,1.50
2019-03-08T08:15:57.125Z,1.23
2019-03-08T08:18:32.867Z,1.30
2019-03-08T08:21:24.182Z,1.10
2019-03-08T08:24:12.000Z,1.23
2019-03-08T08:27:17.995Z,1.50
2019-03-08T08:29:56.910Z,1.27
2019-03-08T08:32:43.345Z,1.03
2019-03-08T08:35:34.372Z,1.20
2019-03-08T08:38:40.049Z,1.10
2019-03-08T08:41:36.488Z,1.00
2019-03-08T08:44:24.263Z,1.27
2019-03-08T08:47:12.057Z,1.33
2019-03-08T08:50:08.895Z,1.10
2019-03-08T08:53:05.775Z,1.00
2019-03-08T08:55:50.381Z,1.00
2019-03-08T08:58:38.198Z,1.23
2019-03-08T09:01:28.790Z,0.87
2019-03-08T09:04:16.570Z,1.17
2019-03-08T09:07:01.549Z,1.00
2019-03-08T09:09:43.489Z,1.20
2019-03-08T09:12:27.829Z,1.20
2019-03-08T09:15:14.261Z,1.70
2019-03-08T09:18:11.155Z,0.93
2019-03-08T09:20:54.853Z,1.07
2019-03-08T09:23:43.063Z,1.00
2019-03-08T09:26:24.402Z,0.90
2019-03-08T09:29:21.299Z,0.90
2019-03-08T09:32:14.751Z,1.00
2019-03-08T09:34:48.061Z,1.10
2019-03-08T09:37:37.310Z,1.00
2019-03-08T09:40:25.807Z,1.00
2019-03-08T09:43:13.575Z,1.10
2019-03-08T09:45:52.101Z,1.20
2019-03-08T09:48:38.305Z,1.03
2019-03-08T09:51:14.700Z,0.90
2019-03-08T09:53:48.477Z,0.70
2019-03-08T09:56:34.281Z,0.80
2019-03-08T09:59:20.385Z,0.90
2019-03-08T10:02:11.075Z,0.80
2019-03-08T10:04:58.879Z,0.90
2019-03-08T10:07:32.551Z,0.90
2019-03-08T10:10:29.058Z,0.73
2019-03-08T10:13:21.528Z,0.87
2019-03-08T10:15:57.869Z,0.83
2019-03-08T10:18:45.535Z,0.90
2019-03-08T10:21:31.986Z,0.90
2019-03-08T10:24:18.176Z,0.90
2019-03-08T10:27:15.215Z,0.90
2019-03-08T10:30:08.278Z,0.97
2019-03-08T10:33:14.244Z,1.00
2019-03-08T10:36:01.997Z,0.80
2019-03-08T10:38:48.212Z,0.80
2019-03-08T10:41:38.844Z,0.90
2019-03-08T10:44:29.450Z,1.27
2019-03-08T10:47:23.271Z,0.90
2019-03-08T10:50:13.983Z,0.80
2019-03-08T10:52:50.972Z,1.00
2019-03-08T10:55:28.174Z,1.00
2019-03-08T10:58:21.783Z,0.60
2019-03-08T11:01:05.346Z,0.90
2019-03-08T11:03:58.940Z,0.73
2019-03-08T11:06:43.317Z,0.83
2019-03-08T11:09:38.310Z,0.90
2019-03-08T11:12:31.849Z,0.93
2019-03-08T11:15:11.524Z,1.00
2019-03-08T11:18:03.307Z,0.97
2019-03-08T11:20:51.543Z,0.87
2019-03-08T11:23:29.332Z,0.80
2019-03-08T11:26:15.712Z,0.90
2019-03-08T11:29:15.758Z,0.73
2019-03-08T11:31:53.657Z,0.93
2019-03-08T11:34:40.090Z,0.90
2019-03-08T11:37:27.926Z,1.10
2019-03-08T11:40:27.713Z,0.90
2019-03-08T11:43:10.144Z,1.50
2019-03-08T11:45:56.823Z,1.47
2019-03-08T11:48:32.647Z,1.27
2019-03-08T11:51:16.126Z,1.20
2019-03-08T11:54:07.110Z,1.20
2019-03-08T11:57:01.968Z,1.00
2019-03-08T11:59:50.899Z,1.00
2019-03-08T12:02:38.124Z,1.10
2019-03-08T12:05:35.473Z,1.00
2019-03-08T12:08:13.876Z,1.37
2019-03-08T12:11:11.821Z,1.10
2019-03-08T12:14:05.414Z,1.20
2019-03-08T12:16:49.906Z,1.30
2019-03-08T12:19:46.805Z,1.00
2019-03-08T12:22:25.418Z,1.00
2019-03-08T12:25:07.381Z,1.00
2019-03-08T12:28:04.376Z,1.30
2019-03-08T12:30:58.440Z,1.10
2019-03-08T12:33:42.437Z,1.10
2019-03-08T12:36:31.058Z,1.00
2019-03-08T12:39:18.787Z,1.10
2019-03-08T12:42:09.514Z,1.03
2019-03-08T12:44:49.196Z,1.20
2019-03-08T12:47:54.897Z,1.27
2019-03-08T12:50:37.957Z,1.50
2019-03-08T12:53:15.562Z,1.50
2019-03-08T12:56:18.171Z,1.10
2019-03-08T12:58:53.914Z,1.30
2019-03-08T13:01:47.828Z,0.90
2019-03-08T13:04:25.726Z,0.70
2019-03-08T13:07:03.839Z,0.93
2019-03-08T13:09:41.310Z,1.20
2019-03-08T13:12:09.947Z,1.10
2019-03-08T13:14:38.588Z,1.00
2019-03-08T13:17:07.289Z,1.40
2019-03-08T13:19:36.366Z,1.40
2019-03-08T13:22:05.129Z,1.77
2019-03-08T13:24:34.233Z,2.17
2019-03-08T13:27:02.900Z,1.67
2019-03-08T13:29:31.695Z,1.30
2019-03-08T13:32:00.476Z,1.20
2019-03-08T13:34:29.355Z,1.17
2019-03-08T13:36:58.079Z,1.30
2019-03-08T13:39:26.821Z,1.30
2019-03-08T13:41:55.465Z,1.67
2019-03-08T13:44:24.132Z,1.10
2019-03-08T13:46:52.847Z,1.33
2019-03-08T13:49:21.744Z,1.00
2019-03-08T13:51:50.489Z,1.30
2019-03-08T13:54:19.229Z,1.10
2019-03-08T13:56:47.864Z,1.10
2019-03-08T13:59:16.474Z,0.83
2019-03-08T14:01:45.194Z,1.00
2019-03-08T14:04:14.063Z,0.63
2019-03-08T14:06:42.740Z,0.80
2019-03-08T14:09:11.479Z,0.90
2019-03-08T14:11:40.155Z,0.60
2019-03-08T14:14:08.909Z,1.00
2019-03-08T14:16:37.682Z,1.00
2019-03-08T14:19:06.538Z,1.10
2019-03-08T14:21:35.202Z,0.80
2019-03-08T14:24:03.926Z,0.73
2019-03-08T14:26:32.702Z,1.07
2019-03-08T14:29:01.419Z,0.90
2019-03-08T14:31:51.951Z,0.90
2019-03-08T14:34:20.639Z,0.73
2019-03-08T14:36:49.452Z,0.90
2019-03-08T14:39:18.277Z,1.00
2019-03-08T14:41:52.565Z,0.90
2019-03-08T14:44:55.238Z,1.30
2019-03-08T14:47:35.942Z,0.80
2019-03-08T14:50:05.528Z,0.83
2019-03-08T14:52:34.182Z,0.90
2019-03-08T14:55:02.895Z,1.00
2019-03-08T14:57:31.630Z,0.97
2019-03-08T15:00:00.460Z,0.77
2019-03-08T15:02:29.263Z,0.80
2019-03-08T15:04:57.979Z,0.90
2019-03-08T15:07:26.825Z,0.97
2019-03-08T15:09:55.462Z,0.83
2019-03-08T15:12:24.167Z,0.90
2019-03-08T15:14:53.031Z,0.90
2019-03-08T15:17:21.751Z,1.00
2019-03-08T15:19:50.493Z,0.80
2019-03-08T15:22:19.216Z,1.07
2019-03-08T15:24:47.956Z,0.77
2019-03-08T15:27:16.733Z,0.90
2019-03-08T15:29:54.020Z,0.90
2019-03-08T15:32:15.796Z,0.70
2019-03-08T15:34:44.451Z,0.87
2019-03-08T15:37:13.104Z,0.80
2019-03-08T15:39:41.849Z,1.00
2019-03-08T15:42:10.570Z,0.93
2019-03-08T15:44:39.301Z,1.23
2019-03-08T15:47:13.469Z,0.83
2019-03-08T15:49:38.340Z,0.90
2019-03-08T15:57:58.665Z,0.93
2019-03-08T16:00:27.362Z,1.00
2019-03-08T16:02:56.163Z,1.10
2019-03-08T16:05:28.344Z,0.90
2019-03-08T16:07:57.687Z,0.90
2019-03-08T16:10:25.701Z,0.80
2019-03-08T16:12:54.425Z,0.80
2019-03-08T16:15:23.035Z,0.97
2019-03-08T16:17:51.826Z,0.90
2019-03-08T16:20:20.600Z,1.07
2019-03-08T16:22:49.277Z,1.30
2019-03-08T16:25:18.047Z,0.83
2019-03-08T16:27:46.781Z,1.07
2019-03-08T16:30:21.920Z,1.20
2019-03-08T16:32:58.287Z,1.20
2019-03-08T16:35:29.741Z,1.00
2019-03-08T16:38:25.915Z,1.03
2019-03-08T16:41:19.714Z,0.93
2019-03-08T16:44:01.984Z,1.00
2019-03-08T16:46:40.303Z,1.10
2019-03-08T16:49:14.658Z,1.20
2019-03-08T16:52:06.799Z,1.30
2019-03-08T16:54:48.025Z,1.20
2019-03-08T16:57:51.135Z,1.20
2019-03-08T17:00:40.454Z,1.63
2019-03-08T17:03:31.180Z,1.13
2019-03-08T17:06:26.434Z,1.25
2019-03-08T17:09:11.317Z,1.57
2019-03-08T17:15:25.606Z,1.20
2019-03-08T17:18:25.534Z,1.43
2019-03-08T17:21:01.490Z,1.87
2019-03-08T17:23:49.198Z,1.53
2019-03-08T17:26:27.215Z,1.50
2019-03-08T17:29:13.505Z,1.40
2019-03-08T17:31:54.422Z,1.80
2019-03-08T17:34:45.749Z,1.57
2019-03-08T17:37:29.039Z,1.80
2019-03-08T17:40:16.873Z,1.67
2019-03-08T17:43:19.518Z,1.53
2019-03-08T17:45:56.459Z,1.60
2019-03-08T17:48:44.256Z,2.43
2019-03-08T17:51:41.512Z,2.03
2019-03-08T17:54:17.779Z,2.47
2019-03-08T17:57:30.329Z,2.30
2019-03-08T18:00:28.169Z,2.40
2019-03-08T18:03:13.855Z,1.90
2019-03-08T18:05:57.244Z,2.40
2019-03-08T18:08:42.192Z,2.60
2019-03-08T18:11:19.935Z,2.57
2019-03-08T18:14:16.857Z,2.50
2019-03-08T18:17:13.683Z,2.50
2019-03-08T18:20:13.283Z,2.17
2019-03-08T18:23:04.085Z,2.27
2019-03-08T18:25:57.946Z,2.50
2019-03-08T18:28:54.543Z,2.50
2019-03-08T18:31:33.188Z,2.63
2019-03-08T18:34:09.037Z,2.57
2019-03-08T18:37:11.912Z,3.47
2019-03-08T18:39:53.765Z,2.50
2019-03-08T18:42:32.737Z,2.53
2019-03-08T18:45:11.129Z,3.27
2019-03-08T18:48:01.685Z,3.23
2019-03-08T18:50:52.843Z,2.80
2019-03-08T18:53:46.415Z,2.80
2019-03-08T18:56:49.125Z,2.90
2019-03-08T18:59:36.772Z,2.93
2019-03-08T19:02:29.318Z,3.73
2019-03-08T19:05:13.800Z,3.30
2019-03-08T19:08:13.801Z,3.97
2019-03-08T19:11:13.679Z,4.43
2019-03-08T19:13:50.214Z,4.80
2019-03-08T19:16:30.922Z,5.30
2019-03-08T19:19:21.673Z,5.10
2019-03-08T19:22:12.207Z,4.70
2019-03-08T19:24:49.668Z,4.30
2019-03-08T19:27:43.343Z,4.00
2019-03-08T19:30:30.973Z,3.30
2019-03-08T19:33:11.431Z,3.00
2019-03-08T19:35:59.212Z,3.20
2019-03-08T19:38:50.014Z,3.17
2019-03-08T19:41:36.193Z,2.97
2019-03-08T19:44:39.098Z,3.50
2019-03-08T19:47:15.262Z,3.50
2019-03-08T19:50:05.858Z,3.43
2019-03-08T19:52:51.996Z,3.90
2019-03-08T19:55:32.382Z,3.40
2019-03-08T19:58:29.540Z,3.90
2019-03-08T20:01:20.605Z,3.60
2019-03-08T20:04:08.466Z,3.70
2019-03-08T20:06:54.849Z,3.80
2019-03-08T20:09:41.930Z,3.60
2019-03-08T20:12:23.237Z,4.50
2019-03-08T20:15:02.294Z,3.67
2019-03-08T20:17:45.987Z,4.20
2019-03-08T20:20:24.853Z,3.73
2019-03-08T20:23:11.192Z,3.97
2019-03-08T20:25:58.999Z,4.00
2019-03-08T20:28:45.413Z,4.03
2019-03-08T20:31:40.525Z,3.90
2019-03-08T20:34:18.946Z,4.17
2019-03-08T20:37:05.379Z,3.70
2019-03-08T20:39:53.177Z,3.50
2019-03-08T20:42:39.512Z,3.72
2019-03-08T20:45:13.887Z,3.70
2019-03-08T20:47:42.734Z,3.70
2019-03-08T20:50:11.600Z,3.10
2019-03-08T20:52:40.448Z,3.50
2019-03-08T20:55:09.292Z,3.40
2019-03-08T20:57:38.076Z,4.17
2019-03-08T21:00:07.188Z,4.40
2019-03-08T21:02:36.029Z,4.10
2019-03-08T21:05:05.281Z,4.00
2019-03-08T21:07:34.153Z,4.10
2019-03-08T21:10:02.881Z,3.67
2019-03-08T21:12:31.484Z,3.73
2019-03-08T21:15:00.425Z,3.73
2019-03-08T21:17:29.138Z,3.37
2019-03-08T21:19:57.807Z,3.20
2019-03-08T21:22:26.541Z,3.27
2019-03-08T21:24:55.274Z,3.17
2019-03-08T21:27:23.986Z,2.90
2019-03-08T21:29:52.695Z,3.30
2019-03-08T21:32:21.343Z,3.73
2019-03-08T21:34:50.065Z,3.40
2019-03-08T21:37:18.792Z,3.17
2019-03-08T21:39:47.536Z,3.63
2019-03-08T21:42:16.556Z,3.37
2019-03-08T21:44:45.405Z,3.33
2019-03-08T21:47:14.130Z,2.67
2019-03-08T21:49:42.828Z,3.07
2019-03-08T21:52:11.579Z,2.43
2019-03-08T21:54:40.294Z,2.73
2019-03-08T21:57:08.999Z,3.07
2019-03-08T21:59:37.688Z,2.70
2019-03-08T22:02:06.442Z,2.80
2019-03-08T22:04:44.628Z,2.50
2019-03-08T22:07:14.651Z,2.83
2019-03-08T22:09:51.620Z,2.73
2019-03-08T22:12:20.369Z,2.50
2019-03-08T22:14:49.099Z,2.70
2019-03-08T22:17:17.896Z,2.73
2019-03-08T22:19:46.580Z,2.73
2019-03-08T22:22:15.313Z,2.60
2019-03-08T22:24:44.050Z,2.60
2019-03-08T22:27:12.729Z,2.43
2019-03-08T22:29:41.425Z,2.30
2019-03-08T22:32:10.387Z,2.50
2019-03-08T22:34:39.056Z,2.50
2019-03-08T22:37:07.756Z,2.77
2019-03-08T22:39:36.479Z,2.80
2019-03-08T22:42:05.142Z,2.40
2019-03-08T22:44:33.865Z,2.80
2019-03-08T22:47:02.540Z,2.87
2019-03-08T22:49:31.220Z,2.40
2019-03-08T22:51:59.947Z,2.80
2019-03-08T22:54:28.666Z,2.90
2019-03-08T22:56:57.318Z,2.40
2019-03-08T22:59:26.261Z,2.63
2019-03-08T23:01:55.382Z,2.40
2019-03-08T23:04:24.028Z,2.80
2019-03-08T23:06:52.755Z,2.60
2019-03-08T23:09:22.140Z,2.70
2019-03-08T23:11:50.781Z,2.70
2019-03-08T23:14:19.459Z,2.43
2019-03-08T23:16:48.126Z,2.50
2019-03-08T23:19:16.753Z,2.83
2019-03-08T23:21:45.322Z,2.30
2019-03-08T23:24:14.061Z,2.67
2019-03-08T23:26:51.218Z,2.97
2019-03-08T23:29:23.736Z,3.00
2019-03-08T23:32:00.515Z,2.73
2019-03-08T23:34:29.151Z,2.70
2019-03-08T23:36:57.813Z,2.70
2019-03-08T23:39:26.479Z,2.40
2019-03-08T23:41:55.084Z,2.63
2019-03-08T23:44:23.743Z,2.70
2019-03-08T23:46:52.428Z,2.90
2019-03-08T23:49:21.125Z,2.70
2019-03-08T23:51:49.783Z,2.60
2019-03-08T23:54:18.467Z,2.80
2019-03-08T23:56:47.123Z,2.70
2019-03-08T23:59:15.890Z,2.27
